sensor_id;sensor_type;location;lat;lon;timestamp;temperature;humidity
41437;DHT22;27178;49.460;10.850;2022-10-15T00:01:43;17.90;86.30
41437;DHT22;27178;49.460;10.850;2022-10-15T00:04:13;17.90;86.30
41437;DHT22;27178;49.460;10.850;2022-10-15T00:06:42;17.80;86.30
41437;DHT22;27178;49.460;10.850;2022-10-15T00:09:10;17.80;86.40
41437;DHT22;27178;49.460;10.850;2022-10-15T00:11:42;17.80;86.50
41437;DHT22;27178;49.460;10.850;2022-10-15T00:14:10;17.80;86.40
41437;DHT22;27178;49.460;10.850;2022-10-15T00:16:38;17.80;86.30
41437;DHT22;27178;49.460;10.850;2022-10-15T00:19:07;17.80;86.50
41437;DHT22;27178;49.460;10.850;2022-10-15T00:21:38;17.80;86.60
41437;DHT22;27178;49.460;10.850;2022-10-15T00:24:07;17.80;86.70
41437;DHT22;27178;49.460;10.850;2022-10-15T00:26:35;17.80;86.60
41437;DHT22;27178;49.460;10.850;2022-10-15T00:29:04;17.80;86.70
41437;DHT22;27178;49.460;10.850;2022-10-15T00:31:32;17.80;86.70
41437;DHT22;27178;49.460;10.850;2022-10-15T00:34:01;17.80;86.60
41437;DHT22;27178;49.460;10.850;2022-10-15T00:36:31;17.80;86.60
41437;DHT22;27178;49.460;10.850;2022-10-15T00:39:02;17.80;86.70
41437;DHT22;27178;49.460;10.850;2022-10-15T00:41:32;17.80;86.80
41437;DHT22;27178;49.460;10.850;2022-10-15T00:44:41;17.80;86.70
41437;DHT22;27178;49.460;10.850;2022-10-15T00:46:51;17.80;86.90
41437;DHT22;27178;49.460;10.850;2022-10-15T00:49:23;17.80;87.00
41437;DHT22;27178;49.460;10.850;2022-10-15T00:51:55;17.80;86.90
41437;DHT22;27178;49.460;10.850;2022-10-15T00:54:30;17.80;86.90
41437;DHT22;27178;49.460;10.850;2022-10-15T00:57:00;17.80;87.10
41437;DHT22;27178;49.460;10.850;2022-10-15T00:59:28;17.80;86.90
41437;DHT22;27178;49.460;10.850;2022-10-15T01:01:59;17.80;86.90
41437;DHT22;27178;49.460;10.850;2022-10-15T01:04:28;17.80;87.10
41437;DHT22;27178;49.460;10.850;2022-10-15T01:06:57;17.80;87.30
41437;DHT22;27178;49.460;10.850;2022-10-15T01:09:27;17.80;87.20
41437;DHT22;27178;49.460;10.850;2022-10-15T01:11:56;17.80;87.30
41437;DHT22;27178;49.460;10.850;2022-10-15T01:14:35;17.80;87.20
41437;DHT22;27178;49.460;10.850;2022-10-15T01:17:10;17.80;87.40
41437;DHT22;27178;49.460;10.850;2022-10-15T01:20:04;17.80;87.10
41437;DHT22;27178;49.460;10.850;2022-10-15T01:22:48;17.80;87.60
41437;DHT22;27178;49.460;10.850;2022-10-15T01:25:32;17.80;87.30
41437;DHT22;27178;49.460;10.850;2022-10-15T01:28:14;17.80;87.30
41437;DHT22;27178;49.460;10.850;2022-10-15T01:30:50;17.80;87.30
41437;DHT22;27178;49.460;10.850;2022-10-15T01:33:28;17.80;87.20
41437;DHT22;27178;49.460;10.850;2022-10-15T01:36:06;17.80;87.20
41437;DHT22;27178;49.460;10.850;2022-10-15T01:38:45;17.80;87.40
41437;DHT22;27178;49.460;10.850;2022-10-15T01:41:19;17.80;87.50
41437;DHT22;27178;49.460;10.850;2022-10-15T01:43:54;17.80;87.40
41437;DHT22;27178;49.460;10.850;2022-10-15T01:46:29;17.90;87.60
41437;DHT22;27178;49.460;10.850;2022-10-15T01:49:02;17.80;87.50
41437;DHT22;27178;49.460;10.850;2022-10-15T01:51:34;17.80;87.40
41437;DHT22;27178;49.460;10.850;2022-10-15T01:54:06;17.80;87.40
41437;DHT22;27178;49.460;10.850;2022-10-15T01:56:36;17.80;87.60
41437;DHT22;27178;49.460;10.850;2022-10-15T01:59:06;17.80;87.80
41437;DHT22;27178;49.460;10.850;2022-10-15T02:01:41;17.80;87.80
41437;DHT22;27178;49.460;10.850;2022-10-15T02:04:18;17.80;87.90
41437;DHT22;27178;49.460;10.850;2022-10-15T02:06:50;17.80;88.10
41437;DHT22;27178;49.460;10.850;2022-10-15T02:09:28;17.80;88.00
41437;DHT22;27178;49.460;10.850;2022-10-15T02:12:07;17.80;88.20
41437;DHT22;27178;49.460;10.850;2022-10-15T02:14:41;17.80;88.20
41437;DHT22;27178;49.460;10.850;2022-10-15T02:17:14;17.80;88.20
41437;DHT22;27178;49.460;10.850;2022-10-15T02:19:49;17.80;88.10
41437;DHT22;27178;49.460;10.850;2022-10-15T02:22:22;17.80;88.00
41437;DHT22;27178;49.460;10.850;2022-10-15T02:24:55;17.80;88.00
41437;DHT22;27178;49.460;10.850;2022-10-15T02:27:26;17.80;88.20
41437;DHT22;27178;49.460;10.850;2022-10-15T02:29:56;17.80;88.20
41437;DHT22;27178;49.460;10.850;2022-10-15T02:32:27;17.80;88.30
41437;DHT22;27178;49.460;10.850;2022-10-15T02:34:58;17.80;88.40
41437;DHT22;27178;49.460;10.850;2022-10-15T02:37:28;17.80;88.40
41437;DHT22;27178;49.460;10.850;2022-10-15T02:39:57;17.80;88.50
41437;DHT22;27178;49.460;10.850;2022-10-15T02:42:26;17.80;88.40
41437;DHT22;27178;49.460;10.850;2022-10-15T02:44:55;17.80;88.40
41437;DHT22;27178;49.460;10.850;2022-10-15T02:47:24;17.80;88.40
41437;DHT22;27178;49.460;10.850;2022-10-15T02:49:54;17.80;88.50
41437;DHT22;27178;49.460;10.850;2022-10-15T02:52:22;17.80;88.60
41437;DHT22;27178;49.460;10.850;2022-10-15T02:54:51;17.80;88.70
41437;DHT22;27178;49.460;10.850;2022-10-15T02:57:19;17.80;88.70
41437;DHT22;27178;49.460;10.850;2022-10-15T02:59:48;17.80;88.60
41437;DHT22;27178;49.460;10.850;2022-10-15T03:02:17;17.80;88.60
41437;DHT22;27178;49.460;10.850;2022-10-15T03:04:45;17.80;88.60
41437;DHT22;27178;49.460;10.850;2022-10-15T03:07:15;17.80;88.70
41437;DHT22;27178;49.460;10.850;2022-10-15T03:09:43;17.80;88.80
41437;DHT22;27178;49.460;10.850;2022-10-15T03:12:11;17.80;88.80
41437;DHT22;27178;49.460;10.850;2022-10-15T03:14:40;17.80;88.70
41437;DHT22;27178;49.460;10.850;2022-10-15T03:17:08;17.80;88.90
41437;DHT22;27178;49.460;10.850;2022-10-15T03:19:37;17.70;88.90
41437;DHT22;27178;49.460;10.850;2022-10-15T03:22:05;17.70;88.90
41437;DHT22;27178;49.460;10.850;2022-10-15T03:24:35;17.70;88.80
41437;DHT22;27178;49.460;10.850;2022-10-15T03:27:03;17.70;88.90
41437;DHT22;27178;49.460;10.850;2022-10-15T03:29:31;17.70;88.80
41437;DHT22;27178;49.460;10.850;2022-10-15T03:32:00;17.70;88.80
41437;DHT22;27178;49.460;10.850;2022-10-15T03:34:28;17.80;88.90
41437;DHT22;27178;49.460;10.850;2022-10-15T03:36:56;17.80;88.90
41437;DHT22;27178;49.460;10.850;2022-10-15T03:39:24;17.80;89.00
41437;DHT22;27178;49.460;10.850;2022-10-15T03:41:53;17.80;88.90
41437;DHT22;27178;49.460;10.850;2022-10-15T03:44:22;17.80;88.90
41437;DHT22;27178;49.460;10.850;2022-10-15T03:46:50;17.70;88.80
41437;DHT22;27178;49.460;10.850;2022-10-15T03:49:18;17.80;88.90
41437;DHT22;27178;49.460;10.850;2022-10-15T03:51:47;17.70;88.90
41437;DHT22;27178;49.460;10.850;2022-10-15T03:54:16;17.80;88.90
41437;DHT22;27178;49.460;10.850;2022-10-15T03:56:44;17.80;89.10
41437;DHT22;27178;49.460;10.850;2022-10-15T03:59:13;17.80;89.20
41437;DHT22;27178;49.460;10.850;2022-10-15T04:01:42;17.80;89.30
41437;DHT22;27178;49.460;10.850;2022-10-15T04:04:11;17.80;89.30
41437;DHT22;27178;49.460;10.850;2022-10-15T04:06:39;17.80;89.30
41437;DHT22;27178;49.460;10.850;2022-10-15T04:09:09;17.80;89.30
41437;DHT22;27178;49.460;10.850;2022-10-15T04:11:37;17.80;89.50
41437;DHT22;27178;49.460;10.850;2022-10-15T04:14:06;17.70;89.50
41437;DHT22;27178;49.460;10.850;2022-10-15T04:16:36;17.80;89.50
41437;DHT22;27178;49.460;10.850;2022-10-15T04:19:05;17.70;89.40
41437;DHT22;27178;49.460;10.850;2022-10-15T04:21:40;17.80;89.50
41437;DHT22;27178;49.460;10.850;2022-10-15T04:24:08;17.70;89.30
41437;DHT22;27178;49.460;10.850;2022-10-15T04:26:37;17.80;89.50
41437;DHT22;27178;49.460;10.850;2022-10-15T04:29:05;17.80;89.50
41437;DHT22;27178;49.460;10.850;2022-10-15T04:31:33;17.80;89.60
41437;DHT22;27178;49.460;10.850;2022-10-15T04:34:05;17.80;89.50
41437;DHT22;27178;49.460;10.850;2022-10-15T04:36:33;17.80;89.80
41437;DHT22;27178;49.460;10.850;2022-10-15T04:39:02;17.80;89.70
41437;DHT22;27178;49.460;10.850;2022-10-15T04:41:30;17.80;89.70
41437;DHT22;27178;49.460;10.850;2022-10-15T04:43:59;17.80;89.80
41437;DHT22;27178;49.460;10.850;2022-10-15T04:46:27;17.80;89.70
41437;DHT22;27178;49.460;10.850;2022-10-15T04:48:56;17.80;89.70
41437;DHT22;27178;49.460;10.850;2022-10-15T04:51:26;17.80;89.80
41437;DHT22;27178;49.460;10.850;2022-10-15T04:53:54;17.80;89.90
41437;DHT22;27178;49.460;10.850;2022-10-15T04:56:23;17.80;90.00
41437;DHT22;27178;49.460;10.850;2022-10-15T04:58:51;17.80;90.00
41437;DHT22;27178;49.460;10.850;2022-10-15T05:01:19;17.80;90.00
41437;DHT22;27178;49.460;10.850;2022-10-15T05:03:48;17.80;90.00
41437;DHT22;27178;49.460;10.850;2022-10-15T05:06:19;17.80;90.00
41437;DHT22;27178;49.460;10.850;2022-10-15T05:08:49;17.80;90.00
41437;DHT22;27178;49.460;10.850;2022-10-15T05:11:19;17.80;90.00
41437;DHT22;27178;49.460;10.850;2022-10-15T05:13:47;17.80;90.00
41437;DHT22;27178;49.460;10.850;2022-10-15T05:16:18;17.80;90.00
41437;DHT22;27178;49.460;10.850;2022-10-15T05:18:48;17.80;90.00
41437;DHT22;27178;49.460;10.850;2022-10-15T05:21:17;17.80;90.00
41437;DHT22;27178;49.460;10.850;2022-10-15T05:23:48;17.80;89.90
41437;DHT22;27178;49.460;10.850;2022-10-15T05:26:20;17.80;90.00
41437;DHT22;27178;49.460;10.850;2022-10-15T05:28:49;17.80;90.00
41437;DHT22;27178;49.460;10.850;2022-10-15T05:31:19;17.80;90.00
41437;DHT22;27178;49.460;10.850;2022-10-15T05:33:49;17.80;90.10
41437;DHT22;27178;49.460;10.850;2022-10-15T05:36:20;17.80;90.10
41437;DHT22;27178;49.460;10.850;2022-10-15T05:38:52;17.80;90.00
41437;DHT22;27178;49.460;10.850;2022-10-15T05:41:21;17.80;90.10
41437;DHT22;27178;49.460;10.850;2022-10-15T05:43:52;17.80;90.10
41437;DHT22;27178;49.460;10.850;2022-10-15T05:46:20;17.80;90.00
41437;DHT22;27178;49.460;10.850;2022-10-15T05:48:50;17.80;90.00
41437;DHT22;27178;49.460;10.850;2022-10-15T05:51:19;17.80;90.00
41437;DHT22;27178;49.460;10.850;2022-10-15T05:53:51;17.80;90.10
41437;DHT22;27178;49.460;10.850;2022-10-15T05:56:20;17.80;90.20
41437;DHT22;27178;49.460;10.850;2022-10-15T05:58:49;17.80;90.20
41437;DHT22;27178;49.460;10.850;2022-10-15T06:01:17;17.80;90.20
41437;DHT22;27178;49.460;10.850;2022-10-15T06:03:47;17.80;90.20
41437;DHT22;27178;49.460;10.850;2022-10-15T06:06:17;17.90;90.10
41437;DHT22;27178;49.460;10.850;2022-10-15T06:08:46;17.80;90.00
41437;DHT22;27178;49.460;10.850;2022-10-15T06:11:16;17.90;90.10
41437;DHT22;27178;49.460;10.850;2022-10-15T06:13:45;17.90;90.10
41437;DHT22;27178;49.460;10.850;2022-10-15T06:16:15;17.90;90.20
41437;DHT22;27178;49.460;10.850;2022-10-15T06:18:50;17.90;90.20
41437;DHT22;27178;49.460;10.850;2022-10-15T06:21:19;17.90;90.30
41437;DHT22;27178;49.460;10.850;2022-10-15T06:23:47;17.90;90.30
41437;DHT22;27178;49.460;10.850;2022-10-15T06:26:17;17.90;90.30
41437;DHT22;27178;49.460;10.850;2022-10-15T06:28:46;17.90;90.40
41437;DHT22;27178;49.460;10.850;2022-10-15T06:31:14;17.90;90.40
41437;DHT22;27178;49.460;10.850;2022-10-15T06:33:42;17.90;90.30
41437;DHT22;27178;49.460;10.850;2022-10-15T06:36:11;18.00;90.30
41437;DHT22;27178;49.460;10.850;2022-10-15T06:38:40;18.00;90.20
41437;DHT22;27178;49.460;10.850;2022-10-15T06:41:10;18.00;90.30
41437;DHT22;27178;49.460;10.850;2022-10-15T06:43:40;18.00;90.30
41437;DHT22;27178;49.460;10.850;2022-10-15T06:46:08;18.00;90.30
41437;DHT22;27178;49.460;10.850;2022-10-15T06:48:37;18.10;90.30
41437;DHT22;27178;49.460;10.850;2022-10-15T06:51:05;18.10;90.30
41437;DHT22;27178;49.460;10.850;2022-10-15T06:53:33;18.10;90.20
41437;DHT22;27178;49.460;10.850;2022-10-15T06:56:03;18.10;90.20
41437;DHT22;27178;49.460;10.850;2022-10-15T06:58:32;18.10;90.30
41437;DHT22;27178;49.460;10.850;2022-10-15T07:01:02;18.10;90.40
41437;DHT22;27178;49.460;10.850;2022-10-15T07:03:31;18.20;90.40
41437;DHT22;27178;49.460;10.850;2022-10-15T07:06:01;18.20;90.30
41437;DHT22;27178;49.460;10.850;2022-10-15T07:08:30;18.20;90.40
41437;DHT22;27178;49.460;10.850;2022-10-15T07:11:00;18.20;90.40
41437;DHT22;27178;49.460;10.850;2022-10-15T07:13:28;18.20;90.20
41437;DHT22;27178;49.460;10.850;2022-10-15T07:15:57;18.20;90.20
41437;DHT22;27178;49.460;10.850;2022-10-15T07:18:26;18.30;90.20
41437;DHT22;27178;49.460;10.850;2022-10-15T07:20:55;18.30;90.20
41437;DHT22;27178;49.460;10.850;2022-10-15T07:23:24;18.30;90.30
41437;DHT22;27178;49.460;10.850;2022-10-15T07:25:53;18.30;90.20
41437;DHT22;27178;49.460;10.850;2022-10-15T07:28:24;18.30;90.10
41437;DHT22;27178;49.460;10.850;2022-10-15T07:30:52;18.40;90.40
41437;DHT22;27178;49.460;10.850;2022-10-15T07:33:20;18.40;90.40
41437;DHT22;27178;49.460;10.850;2022-10-15T07:35:50;18.40;90.40
41437;DHT22;27178;49.460;10.850;2022-10-15T07:38:19;18.40;90.50
41437;DHT22;27178;49.460;10.850;2022-10-15T07:40:47;18.40;90.50
41437;DHT22;27178;49.460;10.850;2022-10-15T07:43:15;18.40;90.50
41437;DHT22;27178;49.460;10.850;2022-10-15T07:45:46;18.40;90.60
41437;DHT22;27178;49.460;10.850;2022-10-15T07:48:16;18.50;90.60
41437;DHT22;27178;49.460;10.850;2022-10-15T07:50:44;18.50;90.50
41437;DHT22;27178;49.460;10.850;2022-10-15T07:53:14;18.50;90.40
41437;DHT22;27178;49.460;10.850;2022-10-15T07:55:46;18.50;90.40
41437;DHT22;27178;49.460;10.850;2022-10-15T07:58:14;18.50;90.40
41437;DHT22;27178;49.460;10.850;2022-10-15T08:00:42;18.50;90.40
41437;DHT22;27178;49.460;10.850;2022-10-15T08:03:11;18.60;90.30
41437;DHT22;27178;49.460;10.850;2022-10-15T08:05:39;18.60;90.40
41437;DHT22;27178;49.460;10.850;2022-10-15T08:08:08;18.60;90.30
41437;DHT22;27178;49.460;10.850;2022-10-15T08:10:37;18.60;90.50
41437;DHT22;27178;49.460;10.850;2022-10-15T08:13:05;18.60;90.40
41437;DHT22;27178;49.460;10.850;2022-10-15T08:15:34;18.60;90.30
41437;DHT22;27178;49.460;10.850;2022-10-15T08:18:05;18.70;90.60
41437;DHT22;27178;49.460;10.850;2022-10-15T08:20:34;18.70;90.50
41437;DHT22;27178;49.460;10.850;2022-10-15T08:23:03;18.70;90.50
41437;DHT22;27178;49.460;10.850;2022-10-15T08:25:31;18.70;90.40
41437;DHT22;27178;49.460;10.850;2022-10-15T08:28:01;18.70;90.40
41437;DHT22;27178;49.460;10.850;2022-10-15T08:30:30;18.70;90.30
41437;DHT22;27178;49.460;10.850;2022-10-15T08:32:59;18.70;90.40
41437;DHT22;27178;49.460;10.850;2022-10-15T08:35:27;18.70;90.40
41437;DHT22;27178;49.460;10.850;2022-10-15T08:38:01;18.70;90.80
41437;DHT22;27178;49.460;10.850;2022-10-15T08:40:29;18.70;90.40
41437;DHT22;27178;49.460;10.850;2022-10-15T08:42:58;18.70;90.40
41437;DHT22;27178;49.460;10.850;2022-10-15T08:45:30;18.70;90.50
41437;DHT22;27178;49.460;10.850;2022-10-15T08:48:04;18.70;90.50
41437;DHT22;27178;49.460;10.850;2022-10-15T08:50:37;18.70;90.60
41437;DHT22;27178;49.460;10.850;2022-10-15T08:53:12;18.70;90.60
41437;DHT22;27178;49.460;10.850;2022-10-15T08:55:43;18.70;90.50
41437;DHT22;27178;49.460;10.850;2022-10-15T08:58:16;18.70;90.50
41437;DHT22;27178;49.460;10.850;2022-10-15T09:00:49;18.80;90.60
41437;DHT22;27178;49.460;10.850;2022-10-15T09:03:29;18.80;90.60
41437;DHT22;27178;49.460;10.850;2022-10-15T09:06:06;18.80;90.60
41437;DHT22;27178;49.460;10.850;2022-10-15T09:08:42;18.80;90.70
41437;DHT22;27178;49.460;10.850;2022-10-15T09:11:15;18.80;90.70
41437;DHT22;27178;49.460;10.850;2022-10-15T09:13:46;18.90;90.70
41437;DHT22;27178;49.460;10.850;2022-10-15T09:16:19;18.90;90.60
41437;DHT22;27178;49.460;10.850;2022-10-15T09:18:50;18.80;90.60
41437;DHT22;27178;49.460;10.850;2022-10-15T09:21:21;18.90;90.60
41437;DHT22;27178;49.460;10.850;2022-10-15T09:23:52;18.90;90.60
41437;DHT22;27178;49.460;10.850;2022-10-15T09:26:26;18.90;90.60
41437;DHT22;27178;49.460;10.850;2022-10-15T09:29:02;19.00;90.70
41437;DHT22;27178;49.460;10.850;2022-10-15T09:31:39;19.00;90.60
41437;DHT22;27178;49.460;10.850;2022-10-15T09:34:13;19.00;90.70
41437;DHT22;27178;49.460;10.850;2022-10-15T09:36:49;19.00;90.50
41437;DHT22;27178;49.460;10.850;2022-10-15T09:39:39;19.10;90.50
41437;DHT22;27178;49.460;10.850;2022-10-15T09:42:17;19.20;90.50
41437;DHT22;27178;49.460;10.850;2022-10-15T09:44:49;19.20;90.40
41437;DHT22;27178;49.460;10.850;2022-10-15T09:47:24;19.20;90.30
41437;DHT22;27178;49.460;10.850;2022-10-15T09:49:53;19.20;90.30
41437;DHT22;27178;49.460;10.850;2022-10-15T09:52:28;19.30;90.40
41437;DHT22;27178;49.460;10.850;2022-10-15T09:55:05;19.30;90.30
41437;DHT22;27178;49.460;10.850;2022-10-15T09:57:36;19.30;90.20
41437;DHT22;27178;49.460;10.850;2022-10-15T10:00:08;19.30;90.20
41437;DHT22;27178;49.460;10.850;2022-10-15T10:02:39;19.40;90.20
41437;DHT22;27178;49.460;10.850;2022-10-15T10:05:27;19.40;90.20
41437;DHT22;27178;49.460;10.850;2022-10-15T10:08:07;19.40;90.00
41437;DHT22;27178;49.460;10.850;2022-10-15T10:10:37;19.40;90.00
41437;DHT22;27178;49.460;10.850;2022-10-15T10:13:22;19.40;90.00
41437;DHT22;27178;49.460;10.850;2022-10-15T10:15:52;19.50;90.20
41437;DHT22;27178;49.460;10.850;2022-10-15T10:18:26;19.50;90.00
41437;DHT22;27178;49.460;10.850;2022-10-15T10:20:57;19.50;90.00
41437;DHT22;27178;49.460;10.850;2022-10-15T10:23:29;19.50;90.10
41437;DHT22;27178;49.460;10.850;2022-10-15T10:26:02;19.50;90.10
41437;DHT22;27178;49.460;10.850;2022-10-15T10:28:33;19.50;90.10
41437;DHT22;27178;49.460;10.850;2022-10-15T10:31:09;19.50;90.10
41437;DHT22;27178;49.460;10.850;2022-10-15T10:33:45;19.60;90.10
41437;DHT22;27178;49.460;10.850;2022-10-15T10:36:19;19.60;90.00
41437;DHT22;27178;49.460;10.850;2022-10-15T10:38:57;19.60;89.80
41437;DHT22;27178;49.460;10.850;2022-10-15T10:41:49;19.70;90.20
41437;DHT22;27178;49.460;10.850;2022-10-15T10:44:21;19.70;89.70
41437;DHT22;27178;49.460;10.850;2022-10-15T10:47:12;19.70;89.60
41437;DHT22;27178;49.460;10.850;2022-10-15T10:49:44;19.80;89.90
41437;DHT22;27178;49.460;10.850;2022-10-15T10:52:22;19.80;89.70
41437;DHT22;27178;49.460;10.850;2022-10-15T10:55:01;19.90;90.20
41437;DHT22;27178;49.460;10.850;2022-10-15T10:57:49;19.90;89.70
41437;DHT22;27178;49.460;10.850;2022-10-15T11:00:20;19.90;89.60
41437;DHT22;27178;49.460;10.850;2022-10-15T11:02:50;20.00;89.80
41437;DHT22;27178;49.460;10.850;2022-10-15T11:05:25;20.00;89.80
41437;DHT22;27178;49.460;10.850;2022-10-15T11:08:01;20.10;89.60
41437;DHT22;27178;49.460;10.850;2022-10-15T11:10:35;20.10;89.40
41437;DHT22;27178;49.460;10.850;2022-10-15T11:13:22;20.10;89.00
41437;DHT22;27178;49.460;10.850;2022-10-15T11:16:01;20.20;88.80
41437;DHT22;27178;49.460;10.850;2022-10-15T11:18:47;20.20;88.50
41437;DHT22;27178;49.460;10.850;2022-10-15T11:21:27;20.30;88.20
41437;DHT22;27178;49.460;10.850;2022-10-15T11:24:10;20.30;88.00
41437;DHT22;27178;49.460;10.850;2022-10-15T11:26:50;20.30;87.90
41437;DHT22;27178;49.460;10.850;2022-10-15T11:29:40;20.40;87.90
41437;DHT22;27178;49.460;10.850;2022-10-15T11:32:18;20.40;87.70
41437;DHT22;27178;49.460;10.850;2022-10-15T11:35:06;20.40;87.50
41437;DHT22;27178;49.460;10.850;2022-10-15T11:38:02;20.40;87.20
41437;DHT22;27178;49.460;10.850;2022-10-15T11:40:36;20.40;87.00
41437;DHT22;27178;49.460;10.850;2022-10-15T11:43:14;20.40;87.00
41437;DHT22;27178;49.460;10.850;2022-10-15T11:45:54;20.40;86.90
41437;DHT22;27178;49.460;10.850;2022-10-15T11:48:38;20.40;86.80
41437;DHT22;27178;49.460;10.850;2022-10-15T11:51:19;20.40;86.70
41437;DHT22;27178;49.460;10.850;2022-10-15T11:54:11;20.40;86.50
41437;DHT22;27178;49.460;10.850;2022-10-15T11:56:44;20.40;86.40
41437;DHT22;27178;49.460;10.850;2022-10-15T11:59:21;20.40;86.30
41437;DHT22;27178;49.460;10.850;2022-10-15T12:01:59;20.40;86.40
41437;DHT22;27178;49.460;10.850;2022-10-15T12:04:35;20.40;86.40
41437;DHT22;27178;49.460;10.850;2022-10-15T12:07:06;20.40;86.40
41437;DHT22;27178;49.460;10.850;2022-10-15T12:09:41;20.30;86.50
41437;DHT22;27178;49.460;10.850;2022-10-15T12:12:18;20.30;86.40
41437;DHT22;27178;49.460;10.850;2022-10-15T12:15:03;20.30;87.00
41437;DHT22;27178;49.460;10.850;2022-10-15T12:17:41;20.30;87.00
41437;DHT22;27178;49.460;10.850;2022-10-15T12:20:15;20.40;86.80
41437;DHT22;27178;49.460;10.850;2022-10-15T12:22:54;20.40;86.70
41437;DHT22;27178;49.460;10.850;2022-10-15T12:25:44;20.40;86.40
41437;DHT22;27178;49.460;10.850;2022-10-15T12:28:21;20.40;86.30
41437;DHT22;27178;49.460;10.850;2022-10-15T12:31:08;20.50;86.60
41437;DHT22;27178;49.460;10.850;2022-10-15T12:33:50;20.50;86.50
41437;DHT22;27178;49.460;10.850;2022-10-15T12:36:23;20.50;86.60
41437;DHT22;27178;49.460;10.850;2022-10-15T12:38:58;20.50;86.50
41437;DHT22;27178;49.460;10.850;2022-10-15T12:41:40;20.60;86.90
41437;DHT22;27178;49.460;10.850;2022-10-15T12:44:18;20.60;87.50
41437;DHT22;27178;49.460;10.850;2022-10-15T12:46:48;20.70;87.10
41437;DHT22;27178;49.460;10.850;2022-10-15T12:49:44;20.80;86.80
41437;DHT22;27178;49.460;10.850;2022-10-15T12:52:49;20.90;86.60
41437;DHT22;27178;49.460;10.850;2022-10-15T12:55:22;20.90;85.90
41437;DHT22;27178;49.460;10.850;2022-10-15T12:57:55;20.90;86.30
41437;DHT22;27178;49.460;10.850;2022-10-15T13:00:46;21.00;86.60
41437;DHT22;27178;49.460;10.850;2022-10-15T13:03:36;21.10;86.20
41437;DHT22;27178;49.460;10.850;2022-10-15T13:06:24;21.20;86.50
41437;DHT22;27178;49.460;10.850;2022-10-15T13:08:56;21.40;86.00
41437;DHT22;27178;49.460;10.850;2022-10-15T13:11:28;21.70;86.60
41437;DHT22;27178;49.460;10.850;2022-10-15T13:14:00;21.90;86.00
41437;DHT22;27178;49.460;10.850;2022-10-15T13:16:29;22.10;85.00
41437;DHT22;27178;49.460;10.850;2022-10-15T13:18:58;22.30;84.70
41437;DHT22;27178;49.460;10.850;2022-10-15T13:21:48;22.40;83.90
41437;DHT22;27178;49.460;10.850;2022-10-15T13:24:19;22.50;82.70
41437;DHT22;27178;49.460;10.850;2022-10-15T13:26:49;22.60;83.40
41437;DHT22;27178;49.460;10.850;2022-10-15T13:29:21;22.80;83.50
41437;DHT22;27178;49.460;10.850;2022-10-15T13:31:53;23.00;82.80
41437;DHT22;27178;49.460;10.850;2022-10-15T13:34:26;23.10;82.00
41437;DHT22;27178;49.460;10.850;2022-10-15T13:36:57;23.20;80.30
41437;DHT22;27178;49.460;10.850;2022-10-15T13:39:31;23.30;79.80
41437;DHT22;27178;49.460;10.850;2022-10-15T13:42:07;23.30;78.30
41437;DHT22;27178;49.460;10.850;2022-10-15T13:44:38;23.20;78.00
41437;DHT22;27178;49.460;10.850;2022-10-15T13:47:25;23.20;78.30
41437;DHT22;27178;49.460;10.850;2022-10-15T13:50:21;23.10;77.50
41437;DHT22;27178;49.460;10.850;2022-10-15T13:52:53;23.00;76.40
41437;DHT22;27178;49.460;10.850;2022-10-15T13:55:24;22.90;78.20
41437;DHT22;27178;49.460;10.850;2022-10-15T13:57:58;22.90;79.10
41437;DHT22;27178;49.460;10.850;2022-10-15T14:00:31;22.90;79.50
41437;DHT22;27178;49.460;10.850;2022-10-15T14:03:07;23.00;80.30
41437;DHT22;27178;49.460;10.850;2022-10-15T14:05:36;23.10;80.10
41437;DHT22;27178;49.460;10.850;2022-10-15T14:08:04;23.30;79.80
41437;DHT22;27178;49.460;10.850;2022-10-15T14:10:33;23.50;79.10
41437;DHT22;27178;49.460;10.850;2022-10-15T14:13:02;23.60;78.10
41437;DHT22;27178;49.460;10.850;2022-10-15T14:15:45;23.70;77.70
41437;DHT22;27178;49.460;10.850;2022-10-15T14:18:16;23.70;76.00
41437;DHT22;27178;49.460;10.850;2022-10-15T14:20:46;23.70;76.50
41437;DHT22;27178;49.460;10.850;2022-10-15T14:23:16;23.70;76.20
41437;DHT22;27178;49.460;10.850;2022-10-15T14:25:52;23.70;75.90
41437;DHT22;27178;49.460;10.850;2022-10-15T14:28:21;23.60;75.50
41437;DHT22;27178;49.460;10.850;2022-10-15T14:30:53;23.50;75.70
41437;DHT22;27178;49.460;10.850;2022-10-15T14:33:39;23.50;75.40
41437;DHT22;27178;49.460;10.850;2022-10-15T14:36:12;23.40;75.30
41437;DHT22;27178;49.460;10.850;2022-10-15T14:38:40;23.20;75.70
41437;DHT22;27178;49.460;10.850;2022-10-15T14:41:30;23.20;75.80
41437;DHT22;27178;49.460;10.850;2022-10-15T14:44:03;23.10;75.70
41437;DHT22;27178;49.460;10.850;2022-10-15T14:46:37;23.00;75.90
41437;DHT22;27178;49.460;10.850;2022-10-15T14:49:16;22.90;76.20
41437;DHT22;27178;49.460;10.850;2022-10-15T14:51:52;22.80;76.30
41437;DHT22;27178;49.460;10.850;2022-10-15T14:54:24;22.80;76.90
41437;DHT22;27178;49.460;10.850;2022-10-15T14:56:55;22.70;77.40
41437;DHT22;27178;49.460;10.850;2022-10-15T14:59:28;22.60;77.40
41437;DHT22;27178;49.460;10.850;2022-10-15T15:02:00;22.60;77.40
41437;DHT22;27178;49.460;10.850;2022-10-15T15:04:35;22.50;77.50
41437;DHT22;27178;49.460;10.850;2022-10-15T15:07:25;22.50;77.50
41437;DHT22;27178;49.460;10.850;2022-10-15T15:09:53;22.40;77.30
41437;DHT22;27178;49.460;10.850;2022-10-15T15:12:23;22.40;77.60
41437;DHT22;27178;49.460;10.850;2022-10-15T15:14:53;22.30;77.60
41437;DHT22;27178;49.460;10.850;2022-10-15T15:17:25;22.30;78.10
41437;DHT22;27178;49.460;10.850;2022-10-15T15:19:55;22.20;77.80
41437;DHT22;27178;49.460;10.850;2022-10-15T15:22:27;22.10;77.70
41437;DHT22;27178;49.460;10.850;2022-10-15T15:24:58;22.10;78.00
41437;DHT22;27178;49.460;10.850;2022-10-15T15:27:29;22.00;78.10
41437;DHT22;27178;49.460;10.850;2022-10-15T15:29:59;21.90;78.20
41437;DHT22;27178;49.460;10.850;2022-10-15T15:32:29;21.90;78.20
41437;DHT22;27178;49.460;10.850;2022-10-15T15:34:58;21.90;78.20
41437;DHT22;27178;49.460;10.850;2022-10-15T15:37:27;21.80;78.20
41437;DHT22;27178;49.460;10.850;2022-10-15T15:39:57;21.80;78.20
41437;DHT22;27178;49.460;10.850;2022-10-15T15:42:25;21.70;78.30
41437;DHT22;27178;49.460;10.850;2022-10-15T15:44:54;21.70;78.20
41437;DHT22;27178;49.460;10.850;2022-10-15T15:47:22;21.60;78.00
41437;DHT22;27178;49.460;10.850;2022-10-15T15:49:52;21.60;78.20